createdAt,value
2022-11-29T00:01:23.801Z,97488.97
2022-11-29T00:03:51.828Z,97497.03
2022-11-29T00:06:21.872Z,97475.28
2022-11-29T00:08:49.530Z,97487.06
2022-11-29T00:11:20.081Z,97484.16
2022-11-29T00:13:47.207Z,97488.69
2022-11-29T00:16:14.331Z,97479.84
2022-11-29T00:18:41.522Z,97490.31
2022-11-29T00:21:09.178Z,97483.59
2022-11-29T00:23:36.613Z,97481.41
2022-11-29T00:26:05.174Z,97480.09
2022-11-29T00:28:34.836Z,97482.78
2022-11-29T00:31:12.022Z,97484.91
2022-11-29T00:33:39.212Z,97481.16
2022-11-29T00:36:07.211Z,97480.63
2022-11-29T00:38:34.376Z,97477.69
2022-11-29T00:41:01.515Z,97483.59
2022-11-29T00:43:28.618Z,97475.00
2022-11-29T00:45:57.292Z,97477.41
2022-11-29T00:48:24.823Z,97474.19
2022-11-29T00:50:52.018Z,97476.09
2022-11-29T00:53:19.311Z,97477.72
2022-11-29T00:55:48.207Z,97476.63
2022-11-29T00:58:15.504Z,97474.47
2022-11-29T01:00:42.686Z,97472.59
2022-11-29T01:03:11.387Z,97480.66
2022-11-29T01:05:38.510Z,97480.41
2022-11-29T01:08:05.842Z,97473.66
2022-11-29T01:10:33.287Z,97478.25
2022-11-29T01:13:00.407Z,97476.09
2022-11-29T01:15:28.095Z,97479.84
2022-11-29T01:17:55.251Z,97477.72
2022-11-29T01:20:23.942Z,97483.84
2022-11-29T01:22:51.210Z,97480.09
2022-11-29T01:25:18.825Z,97477.41
2022-11-29T01:27:46.003Z,97483.63
2022-11-29T01:30:14.584Z,97489.78
2022-11-29T01:32:41.775Z,97491.69
2022-11-29T01:35:09.316Z,97488.47
2022-11-29T01:37:37.783Z,97487.94
2022-11-29T01:40:06.455Z,97487.94
2022-11-29T01:42:33.563Z,97482.56
2022-11-29T01:45:13.572Z,97488.47
2022-11-29T01:47:45.714Z,97487.94
2022-11-29T01:50:13.415Z,97484.72
2022-11-29T01:52:42.480Z,97479.88
2022-11-29T01:55:10.389Z,97477.75
2022-11-29T01:57:40.877Z,97472.91
2022-11-29T02:00:15.070Z,97481.22
2022-11-29T02:02:44.928Z,97477.19
2022-11-29T02:05:14.661Z,97477.75
2022-11-29T02:07:45.963Z,97473.16
2022-11-29T02:10:15.066Z,97471.81
2022-11-29T02:12:55.913Z,97469.13
2022-11-29T02:15:33.395Z,97470.19
2022-11-29T02:18:06.519Z,97409.81
2022-11-29T02:21:09.727Z,97471.28
2022-11-29T02:24:14.936Z,97475.03
2022-11-29T02:26:59.259Z,97475.03
2022-11-29T02:30:11.265Z,97466.72
2022-11-29T02:33:22.797Z,97477.47
2022-11-29T02:36:11.663Z,97470.47
2022-11-29T02:39:06.844Z,97476.66
2022-11-29T02:41:46.192Z,97482.84
2022-11-29T02:44:38.858Z,97478.00
2022-11-29T02:47:15.583Z,97472.09
2022-11-29T02:50:00.739Z,97475.34
2022-11-29T02:52:39.759Z,97472.38
2022-11-29T02:55:12.918Z,97471.84
2022-11-29T02:57:45.994Z,97482.84
2022-11-29T03:00:18.406Z,97475.06
2022-11-29T03:02:52.199Z,97477.22
2022-11-29T03:05:23.829Z,97474.53
2022-11-29T03:07:59.277Z,97481.50
2022-11-29T03:10:34.698Z,97481.22
2022-11-29T03:13:06.815Z,97481.22
2022-11-29T03:15:43.670Z,97483.66
2022-11-29T03:18:28.310Z,97484.19
2022-11-29T03:21:07.525Z,97483.66
2022-11-29T03:23:39.158Z,97488.75
2022-11-29T03:26:09.918Z,97489.31
2022-11-29T03:28:41.757Z,97480.19
2022-11-29T03:31:16.029Z,97488.22
2022-11-29T03:33:52.061Z,97488.53
2022-11-29T03:36:29.546Z,97507.03
2022-11-29T03:39:04.069Z,97502.22
2022-11-29T03:41:38.054Z,97503.31
2022-11-29T03:44:12.765Z,97502.47
2022-11-29T03:46:47.751Z,97504.91
2022-11-29T03:49:20.864Z,97493.91
2022-11-29T03:51:59.983Z,97496.84
2022-11-29T03:54:34.814Z,97488.00
2022-11-29T03:57:02.485Z,97500.81
2022-11-29T03:59:43.935Z,97502.34
2022-11-29T04:02:50.419Z,97496.38
2022-11-29T04:05:50.103Z,97497.41
2022-11-29T04:08:50.143Z,97495.25
2022-11-29T04:11:40.946Z,97496.31
2022-11-29T04:14:34.364Z,97495.25
2022-11-29T04:17:30.019Z,97499.31
2022-11-29T04:20:36.296Z,97500.16
2022-11-29T04:23:49.793Z,97499.91
2022-11-29T04:26:37.306Z,97505.50
2022-11-29T04:29:23.962Z,97504.75
2022-11-29T04:32:29.747Z,97499.38
2022-11-29T04:35:14.674Z,97515.78
2022-11-29T04:38:06.514Z,97517.44
2022-11-29T04:41:05.089Z,97512.84
2022-11-29T04:43:51.632Z,97510.47
2022-11-29T04:46:52.893Z,97516.41
2022-11-29T04:49:37.824Z,97500.28
2022-11-29T04:52:39.342Z,97515.06
2022-11-29T04:55:23.719Z,97522.06
2022-11-29T04:58:03.724Z,97518.56
2022-11-29T05:00:39.189Z,97519.09
2022-11-29T05:03:12.674Z,97523.16
2022-11-29T05:05:46.757Z,97525.53
2022-11-29T05:08:27.540Z,97522.06
2022-11-29T05:11:05.509Z,97522.31
2022-11-29T05:13:42.454Z,97532.28
2022-11-29T05:16:22.847Z,97532.28
2022-11-29T05:19:02.892Z,97529.84
2022-11-29T05:21:42.405Z,97536.31
2022-11-29T05:24:23.193Z,97537.66
2022-11-29T05:26:58.370Z,97544.41
2022-11-29T05:29:34.054Z,97541.97
2022-11-29T05:32:21.006Z,97540.63
2022-11-29T05:35:29.195Z,97544.41
2022-11-29T05:38:03.465Z,97524.81
2022-11-29T05:40:44.038Z,97544.41
2022-11-29T05:43:40.894Z,97546.00
2022-11-29T05:46:17.310Z,97541.13
2022-11-29T05:48:54.538Z,97548.41
2022-11-29T05:51:29.717Z,97543.53
2022-11-29T05:54:09.518Z,97527.44
2022-11-29T05:56:44.958Z,97525.53
2022-11-29T05:59:15.343Z,97551.28
2022-11-29T06:01:52.313Z,97553.47
2022-11-29T06:04:25.971Z,97550.78
2022-11-29T06:06:57.989Z,97545.41
2022-11-29T06:09:29.504Z,97552.41
2022-11-29T06:12:02.676Z,97561.31
2022-11-29T06:14:48.301Z,97558.06
2022-11-29T06:17:39.372Z,97558.88
2022-11-29T06:20:28.509Z,97559.94
2022-11-29T06:23:10.570Z,97562.06
2022-11-29T06:25:52.946Z,97562.06
2022-11-29T06:28:32.319Z,97561.78
2022-11-29T06:31:05.252Z,97575.81
2022-11-29T06:33:41.138Z,97575.78
2022-11-29T06:36:17.243Z,97562.66
2022-11-29T06:38:44.678Z,97579.84
2022-11-29T06:41:17.795Z,97586.84
2022-11-29T06:43:45.477Z,97582.81
2022-11-29T06:46:20.087Z,97589.25
2022-11-29T06:48:55.498Z,97591.41
2022-11-29T06:51:33.078Z,97585.50
2022-11-29T06:54:14.281Z,97586.03
2022-11-29T06:56:48.757Z,97585.78
2022-11-29T06:59:34.763Z,97592.22
2022-11-29T07:02:12.812Z,97597.88
2022-11-29T07:04:56.342Z,97602.97
2022-11-29T07:07:25.568Z,97602.97
2022-11-29T07:09:57.325Z,97602.44
2022-11-29T07:12:25.247Z,97601.09
2022-11-29T07:14:53.154Z,97601.38
2022-11-29T07:17:27.773Z,97605.94
2022-11-29T07:20:03.712Z,97605.38
2022-11-29T07:22:44.613Z,97598.69
2022-11-29T07:25:22.883Z,97603.25
2022-11-29T07:27:58.336Z,97606.19
2022-11-29T07:30:32.070Z,97613.75
2022-11-29T07:33:09.040Z,97610.50
2022-11-29T07:35:44.946Z,97572.88
2022-11-29T07:38:25.447Z,97612.38
2022-11-29T07:40:59.072Z,97615.34
2022-11-29T07:43:41.119Z,97610.75
2022-11-29T07:46:08.226Z,97609.69
2022-11-29T07:48:35.338Z,97616.97
2022-11-29T07:51:02.616Z,97618.03
2022-11-29T07:53:31.234Z,97610.78
2022-11-29T07:55:58.339Z,97617.50
2022-11-29T07:58:25.589Z,97619.66
2022-11-29T08:00:52.816Z,97613.19
2022-11-29T08:03:20.026Z,97614.53
2022-11-29T08:05:47.778Z,97591.16
2022-11-29T08:08:15.334Z,97618.84
2022-11-29T08:10:43.904Z,97633.88
2022-11-29T08:13:11.049Z,97632.28
2022-11-29T08:15:44.382Z,97627.19
2022-11-29T08:18:11.696Z,97628.50
2022-11-29T08:20:38.987Z,97627.69
2022-11-29T08:23:06.094Z,97632.53
2022-11-29T08:25:33.363Z,97625.28
2022-11-29T08:28:04.500Z,97630.94
2022-11-29T08:30:31.874Z,97621.53
2022-11-29T08:32:59.010Z,97639.25
2022-11-29T08:35:26.128Z,97637.91
2022-11-29T08:37:54.065Z,97630.91
2022-11-29T08:40:21.547Z,97636.28
2022-11-29T08:42:48.723Z,97642.50
2022-11-29T08:45:17.258Z,97634.69
2022-11-29T08:47:44.406Z,97638.44
2022-11-29T08:50:13.727Z,97640.34
2022-11-29T08:52:43.770Z,97643.28
2022-11-29T08:55:11.156Z,97642.22
2022-11-29T08:57:40.257Z,97646.53
2022-11-29T09:00:09.189Z,97644.88
2022-11-29T09:02:38.028Z,97647.84
2022-11-29T09:05:05.396Z,97649.47
2022-11-29T09:07:32.666Z,97657.25
2022-11-29T09:09:59.957Z,97657.81
2022-11-29T09:12:27.054Z,97665.88
2022-11-29T09:14:54.154Z,97664.00
2022-11-29T09:17:21.443Z,97661.28
2022-11-29T09:19:50.087Z,97646.25
2022-11-29T09:22:17.236Z,97666.41
2022-11-29T09:24:44.708Z,97656.19
2022-11-29T09:27:11.905Z,97668.03
2022-11-29T09:29:39.061Z,97669.34
2022-11-29T09:32:06.641Z,97671.25
2022-11-29T09:34:33.831Z,97672.56
2022-11-29T09:37:02.270Z,97670.44
2022-11-29T09:39:29.404Z,97673.91
2022-11-29T09:42:09.723Z,97672.31
2022-11-29T09:44:49.179Z,97669.38
2022-11-29T09:47:28.019Z,97667.47
2022-11-29T09:50:03.225Z,97665.34
2022-11-29T09:52:47.549Z,97668.03
2022-11-29T09:55:32.237Z,97667.47
2022-11-29T09:58:02.175Z,97666.66
2022-11-29T10:00:32.465Z,97677.94
2022-11-29T10:03:09.059Z,97677.16
2022-11-29T10:05:42.845Z,97677.16
2022-11-29T10:08:18.888Z,97684.41
2022-11-29T10:10:48.178Z,97667.47
2022-11-29T10:13:19.806Z,97669.09
2022-11-29T10:15:52.819Z,97680.38
2022-11-29T10:18:25.497Z,97673.38
2022-11-29T10:20:55.446Z,97669.34
2022-11-29T10:23:31.082Z,97670.69
2022-11-29T10:25:59.110Z,97662.88
2022-11-29T10:28:28.870Z,97663.44
2022-11-29T10:30:58.874Z,97673.41
2022-11-29T10:33:30.772Z,97673.41
2022-11-29T10:36:00.227Z,97680.69
2022-11-29T10:38:31.372Z,97668.78
2022-11-29T10:41:04.214Z,97671.50
2022-11-29T10:43:31.500Z,97669.09
2022-11-29T10:45:58.995Z,97663.19
2022-11-29T10:48:29.248Z,97670.44
2022-11-29T10:50:56.360Z,97662.91
2022-11-29T10:53:26.133Z,97663.19
2022-11-29T10:56:06.794Z,97666.69
2022-11-29T10:58:34.361Z,97666.41
2022-11-29T11:01:03.709Z,97665.88
2022-11-29T11:03:40.223Z,97669.09
2022-11-29T11:06:13.377Z,97662.13
2022-11-29T11:08:43.929Z,97667.22
2022-11-29T11:11:14.220Z,97672.59
2022-11-29T11:13:42.025Z,97660.88
2022-11-29T11:16:15.328Z,97661.69
2022-11-29T11:18:43.477Z,97661.16
2022-11-29T11:21:12.951Z,97656.09
2022-11-29T11:23:46.001Z,97662.28
2022-11-29T11:26:14.897Z,97663.63
2022-11-29T11:28:48.567Z,97667.13
2022-11-29T11:31:16.907Z,97670.06
2022-11-29T11:33:44.914Z,97667.13
2022-11-29T11:36:15.453Z,97658.00
2022-11-29T11:38:51.697Z,97670.63
2022-11-29T11:41:23.401Z,97665.78
2022-11-29T11:43:57.310Z,97677.09
2022-11-29T11:46:46.785Z,97670.91
2022-11-29T11:49:21.055Z,97676.03
2022-11-29T11:51:48.002Z,97673.63
2022-11-29T11:54:15.310Z,97676.31
2022-11-29T11:56:43.899Z,97679.56
2022-11-29T11:59:18.439Z,97682.25
2022-11-29T12:01:45.707Z,97679.03
2022-11-29T12:04:17.405Z,97683.88
2022-11-29T12:06:49.945Z,97688.72
2022-11-29T12:09:39.484Z,97687.13
2022-11-29T12:12:14.679Z,97684.19
2022-11-29T12:14:52.751Z,97688.22
2022-11-29T12:17:27.931Z,97667.47
2022-11-29T12:20:18.848Z,97682.81
2022-11-29T12:22:58.896Z,97683.38
2022-11-29T12:25:29.648Z,97689.84
2022-11-29T12:27:58.112Z,97685.00
2022-11-29T12:30:25.347Z,97691.16
2022-11-29T12:33:12.683Z,97692.25
2022-11-29T12:35:50.197Z,97687.94
2022-11-29T12:38:31.984Z,97690.09
2022-11-29T12:41:06.991Z,97689.84
2022-11-29T12:43:51.917Z,97695.75
2022-11-29T12:46:23.689Z,97701.13
2022-11-29T12:48:59.285Z,97699.75
2022-11-29T12:51:35.287Z,97704.34
2022-11-29T12:54:35.242Z,97698.97
2022-11-29T12:57:10.170Z,97700.59
2022-11-29T12:59:54.729Z,97697.88
2022-11-29T13:02:25.701Z,97693.28
2022-11-29T13:05:01.331Z,97700.03
2022-11-29T13:07:39.894Z,97697.34
2022-11-29T13:10:27.786Z,97707.31
2022-11-29T13:12:58.371Z,97698.97
2022-11-29T13:15:36.770Z,97705.19
2022-11-29T13:18:11.033Z,97701.13
2022-11-29T13:20:40.618Z,97708.94
2022-11-29T13:23:18.771Z,97710.78
2022-11-29T13:25:50.067Z,97704.88
2022-11-29T13:28:23.651Z,97711.88
2022-11-29T13:30:54.997Z,97712.41
2022-11-29T13:33:27.788Z,97708.09
2022-11-29T13:36:01.143Z,97712.94
2022-11-29T13:38:37.060Z,97720.19
2022-11-29T13:41:14.896Z,97714.53
2022-11-29T13:43:50.532Z,97717.25
2022-11-29T13:46:28.147Z,97715.88
2022-11-29T13:48:55.451Z,97714.56
2022-11-29T13:51:31.839Z,97716.72
2022-11-29T13:54:02.185Z,97718.88
2022-11-29T13:56:36.745Z,97716.72
2022-11-29T13:59:08.293Z,97709.44
2022-11-29T14:01:49.363Z,97718.84
2022-11-29T14:04:33.591Z,97723.44
2022-11-29T14:07:07.611Z,97726.91
2022-11-29T14:09:42.269Z,97717.50
2022-11-29T14:12:26.080Z,97729.34
2022-11-29T14:14:58.395Z,97729.59
2022-11-29T14:17:45.267Z,97728.00
2022-11-29T14:20:47.789Z,97724.22
2022-11-29T14:23:17.358Z,97721.00
2022-11-29T14:26:17.892Z,97721.81
2022-11-29T14:28:45.016Z,97726.38
2022-11-29T14:31:49.368Z,97728.00
2022-11-29T14:34:37.992Z,97721.00
2022-11-29T14:37:17.276Z,97718.03
2022-11-29T14:39:46.903Z,97727.19
2022-11-29T14:42:16.869Z,97726.66
2022-11-29T14:44:49.436Z,97731.50
2022-11-29T14:47:22.946Z,97728.81
2022-11-29T14:49:53.868Z,97739.00
2022-11-29T14:52:27.201Z,97736.59
2022-11-29T14:54:59.700Z,97736.34
2022-11-29T14:57:51.660Z,97743.59
2022-11-29T15:00:20.833Z,97729.63
2022-11-29T15:02:50.963Z,97742.84
2022-11-29T15:05:22.315Z,97742.56
2022-11-29T15:07:52.864Z,97740.13
2022-11-29T15:10:25.161Z,97745.50
2022-11-29T15:12:53.036Z,97742.56
2022-11-29T15:15:46.188Z,97746.88
2022-11-29T15:18:26.818Z,97759.75
2022-11-29T15:21:08.606Z,97759.97
2022-11-29T15:23:43.115Z,97755.91
2022-11-29T15:26:17.096Z,97694.44
2022-11-29T15:28:44.931Z,97756.28
2022-11-29T15:31:16.012Z,97753.59
2022-11-29T15:33:46.039Z,97755.00
2022-11-29T15:36:18.764Z,97755.56
2022-11-29T15:38:47.867Z,97751.31
2022-11-29T15:41:26.027Z,97753.22
2022-11-29T15:43:55.744Z,97723.38
2022-11-29T15:46:25.164Z,97736.31
2022-11-29T15:48:52.773Z,97752.16
2022-11-29T15:51:27.754Z,97765.38
2022-11-29T15:54:12.245Z,97770.75
2022-11-29T15:56:45.209Z,97765.63
2022-11-29T15:59:18.329Z,97767.53
2022-11-29T16:01:48.350Z,97758.41
2022-11-29T16:04:18.878Z,97759.41
2022-11-29T16:06:48.788Z,97760.47
2022-11-29T16:09:18.978Z,97741.88
2022-11-29T16:11:47.392Z,97749.06
2022-11-29T16:14:18.252Z,97755.00
2022-11-29T16:16:48.096Z,97760.41
2022-11-29T16:19:25.358Z,97765.81
2022-11-29T16:22:18.274Z,97768.28
2022-11-29T16:24:58.392Z,97771.28
2022-11-29T16:27:25.547Z,97768.81
2022-11-29T16:29:53.642Z,97767.50
2022-11-29T16:32:27.405Z,97775.31
2022-11-29T16:34:56.273Z,97772.91
2022-11-29T16:37:26.386Z,97758.91
2022-11-29T16:39:58.048Z,97754.34
2022-11-29T16:42:29.071Z,97771.03
2022-11-29T16:45:27.624Z,97757.34
2022-11-29T16:47:54.831Z,97779.94
2022-11-29T16:50:22.175Z,97769.19
2022-11-29T16:52:56.262Z,97764.88
2022-11-29T16:55:24.290Z,97771.06
2022-11-29T16:57:51.477Z,97775.09
2022-11-29T17:00:24.103Z,97778.88
2022-11-29T17:02:51.461Z,97788.00
2022-11-29T17:05:18.622Z,97786.13
2022-11-29T17:07:46.487Z,97795.84
2022-11-29T17:10:18.745Z,97795.81
2022-11-29T17:12:48.234Z,97806.06
2022-11-29T17:15:16.009Z,97794.75
2022-11-29T17:17:43.610Z,97801.97
2022-11-29T17:20:11.784Z,97804.38
2022-11-29T17:22:38.939Z,97803.03
2022-11-29T17:25:06.933Z,97793.88
2022-11-29T17:27:35.669Z,97795.75
2022-11-29T17:30:04.792Z,97792.00
2022-11-29T17:32:33.563Z,97793.63
2022-11-29T17:35:00.850Z,97800.34
2022-11-29T17:37:28.871Z,97796.59
2022-11-29T17:39:56.063Z,97791.75
2022-11-29T17:42:23.399Z,97785.03
2022-11-29T17:44:51.872Z,97781.81
2022-11-29T17:47:19.271Z,97790.94
2022-11-29T17:49:46.675Z,97805.19
2022-11-29T17:52:13.934Z,97808.16
2022-11-29T17:54:41.073Z,97777.72
2022-11-29T17:57:08.215Z,97804.41
2022-11-29T17:59:35.327Z,97806.25
2022-11-29T18:02:03.965Z,97811.63
2022-11-29T18:04:31.377Z,97804.38
2022-11-29T18:06:58.822Z,97817.28
2022-11-29T18:09:25.967Z,97825.06
2022-11-29T18:11:53.068Z,97826.72
2022-11-29T18:14:22.259Z,97828.88
2022-11-29T18:16:49.545Z,97826.16
2022-11-29T18:19:20.928Z,97832.09
2022-11-29T18:21:48.613Z,97819.44
2022-11-29T18:24:16.222Z,97805.69
2022-11-29T18:26:43.812Z,97825.88
2022-11-29T18:29:11.131Z,97825.88
2022-11-29T18:31:40.165Z,97829.09
2022-11-29T18:34:09.240Z,97822.38
2022-11-29T18:36:40.103Z,97829.41
2022-11-29T18:39:08.512Z,97829.41
2022-11-29T18:41:36.600Z,97826.69
2022-11-29T18:44:06.824Z,97835.28
2022-11-29T18:46:34.885Z,97836.38
2022-11-29T18:49:03.539Z,97843.34
2022-11-29T18:51:31.723Z,97845.50
2022-11-29T18:54:00.979Z,97840.41
2022-11-29T18:56:29.712Z,97841.75
2022-11-29T18:58:58.870Z,97849.28
2022-11-29T19:01:27.889Z,97840.91
2022-11-29T19:03:57.506Z,97848.44
2022-11-29T19:06:26.519Z,97844.94
2022-11-29T19:08:54.112Z,97843.56
2022-11-29T19:11:25.004Z,97853.56
2022-11-29T19:13:53.793Z,97863.22
2022-11-29T19:16:20.923Z,97845.22
2022-11-29T19:18:51.225Z,97860.31
2022-11-29T19:21:19.701Z,97873.22
2022-11-29T19:23:51.655Z,97875.91
2022-11-29T19:26:19.163Z,97879.66
2022-11-29T19:28:48.037Z,97877.50
2022-11-29T19:31:17.802Z,97863.78
2022-11-29T19:33:45.733Z,97851.59
2022-11-29T19:36:14.678Z,97876.66
2022-11-29T19:38:43.385Z,97868.59
2022-11-29T19:41:11.842Z,97872.38
2022-11-29T19:43:39.082Z,97873.22
2022-11-29T19:46:08.625Z,97856.75
2022-11-29T19:48:36.330Z,97882.63
2022-11-29T19:51:04.927Z,97883.69
2022-11-29T19:53:32.701Z,97880.97
2022-11-29T19:56:02.975Z,97881.75
2022-11-29T19:58:30.449Z,97890.41
2022-11-29T20:01:04.266Z,97898.19
2022-11-29T20:03:33.050Z,97901.41
2022-11-29T20:06:01.082Z,97903.03
2022-11-29T20:08:28.578Z,97891.75
2022-11-29T20:10:55.982Z,97895.81
2022-11-29T20:13:23.182Z,97895.56
2022-11-29T20:15:50.360Z,97898.50
2022-11-29T20:18:17.547Z,97892.03
2022-11-29T20:20:46.004Z,97887.44
2022-11-29T20:23:13.130Z,97889.34
2022-11-29T20:25:40.267Z,97893.63
2022-11-29T20:28:07.394Z,97894.19
2022-11-29T20:30:34.495Z,97903.03
2022-11-29T20:33:02.455Z,97899.00
2022-11-29T20:35:29.959Z,97887.44
2022-11-29T20:38:18.170Z,97888.81
2022-11-29T20:40:59.586Z,97882.03
2022-11-29T20:43:32.268Z,97904.59
2022-11-29T20:45:59.587Z,97891.44
2022-11-29T20:48:27.202Z,97892.22
2022-11-29T20:50:58.266Z,97910.00
2022-11-29T20:53:35.596Z,97911.59
2022-11-29T20:56:04.308Z,97902.69
2022-11-29T20:58:31.959Z,97895.44
2022-11-29T21:00:59.808Z,97901.13
2022-11-29T21:03:28.143Z,97899.56
2022-11-29T21:05:56.312Z,97896.56
2022-11-29T21:08:26.042Z,97909.78
2022-11-29T21:10:55.094Z,97907.06
2022-11-29T21:13:23.223Z,97909.47
2022-11-29T21:15:50.959Z,97912.16
2022-11-29T21:18:22.554Z,97914.84
2022-11-29T21:21:01.756Z,97913.50
2022-11-29T21:23:38.018Z,97924.81
2022-11-29T21:26:13.564Z,97929.69
2022-11-29T21:28:49.080Z,97931.81
2022-11-29T21:31:17.638Z,97925.91
2022-11-29T21:33:45.329Z,97934.22
2022-11-29T21:36:13.494Z,97935.78
2022-11-29T21:38:41.225Z,97924.19
2022-11-29T21:41:09.718Z,97942.81
2022-11-29T21:44:04.782Z,97926.66
2022-11-29T21:46:24.041Z,97929.06
2022-11-29T21:48:51.251Z,97930.00
2022-11-29T21:51:19.012Z,97923.00
2022-11-29T21:53:46.135Z,97915.41
2022-11-29T21:56:14.929Z,97925.38
2022-11-29T21:58:42.121Z,97924.31
2022-11-29T22:01:11.690Z,97919.19
2022-11-29T22:03:39.505Z,97925.63
2022-11-29T22:06:09.513Z,97931.00
2022-11-29T22:08:37.732Z,97926.94
2022-11-29T22:11:07.056Z,97936.38
2022-11-29T22:13:36.627Z,97936.34
2022-11-29T22:16:08.880Z,97934.44
2022-11-29T22:18:36.778Z,97936.84
2022-11-29T22:21:06.443Z,97938.44
2022-11-29T22:23:33.908Z,97925.53
2022-11-29T22:26:05.336Z,97919.28
2022-11-29T22:28:32.902Z,97926.91
2022-11-29T22:31:06.378Z,97925.84
2022-11-29T22:33:35.578Z,97926.84
2022-11-29T22:36:04.623Z,97918.00
2022-11-29T22:38:31.954Z,97919.09
2022-11-29T22:41:00.066Z,97929.31
2022-11-29T22:43:27.734Z,97913.66
2022-11-29T22:45:54.935Z,97928.28
2022-11-29T22:48:23.443Z,97930.72
2022-11-29T22:50:50.543Z,97920.16
2022-11-29T22:53:17.656Z,97928.78
2022-11-29T22:55:44.747Z,97924.47
2022-11-29T22:58:12.424Z,97929.59
2022-11-29T23:00:39.570Z,97931.47
2022-11-29T23:03:06.767Z,97923.41
2022-11-29T23:05:35.267Z,97925.06
2022-11-29T23:08:02.553Z,97919.16
2022-11-29T23:10:29.702Z,97912.91
2022-11-29T23:12:56.802Z,97918.53
2022-11-29T23:15:23.978Z,97913.13
2022-11-29T23:17:51.112Z,97919.28
2022-11-29T23:20:18.402Z,97914.22
2022-11-29T23:22:47.014Z,97916.09
2022-11-29T23:25:14.189Z,97920.13
2022-11-29T23:27:41.363Z,97909.94
2022-11-29T23:30:09.413Z,97907.25
2022-11-29T23:32:36.531Z,97912.63
2022-11-29T23:35:03.859Z,97903.78
2022-11-29T23:37:30.981Z,97909.69
2022-11-29T23:39:59.426Z,97908.59
2022-11-29T23:42:26.553Z,97909.41
2022-11-29T23:44:53.805Z,97899.72
2022-11-29T23:47:21.015Z,97887.63
2022-11-29T23:49:48.119Z,97888.97
2022-11-29T23:52:15.257Z,97892.47
2022-11-29T23:54:42.400Z,97890.03
2022-11-29T23:57:10.874Z,97890.56
2022-11-29T23:59:38.030Z,97893.25
